createdAt,value
2022-09-23T00:01:15.493Z,100793.38
2022-09-23T00:03:46.670Z,100791.80
2022-09-23T00:06:22.663Z,100789.20
2022-09-23T00:08:50.305Z,100784.86
2022-09-23T00:11:20.648Z,100782.02
2022-09-23T00:13:50.219Z,100784.90
2022-09-23T00:16:24.281Z,100781.58
2022-09-23T00:18:51.620Z,100783.88
2022-09-23T00:21:20.219Z,100783.21
2022-09-23T00:23:47.952Z,100786.77
2022-09-23T00:26:18.508Z,100785.19
2022-09-23T00:28:46.629Z,100777.48
2022-09-23T00:31:23.378Z,100776.71
2022-09-23T00:33:58.557Z,100776.48
2022-09-23T00:36:27.398Z,100775.00
2022-09-23T00:38:55.002Z,100772.73
2022-09-23T00:41:22.141Z,100771.83
2022-09-23T00:43:53.155Z,100773.82
2022-09-23T00:46:36.745Z,100771.16
2022-09-23T00:49:13.038Z,100777.52
2022-09-23T00:51:49.590Z,100780.86
2022-09-23T00:54:18.341Z,100778.64
2022-09-23T00:56:45.417Z,100778.91
2022-09-23T00:59:13.499Z,100778.55
2022-09-23T01:01:41.944Z,100776.73
2022-09-23T01:04:09.434Z,100776.90
2022-09-23T01:07:08.817Z,100775.77
2022-09-23T01:09:36.459Z,100774.56
2022-09-23T01:12:26.279Z,100772.95
2022-09-23T01:15:13.806Z,100769.55
2022-09-23T01:17:59.828Z,100769.90
2022-09-23T01:20:35.793Z,100771.90
2022-09-23T01:23:29.053Z,100763.23
2022-09-23T01:26:34.797Z,100766.05
2022-09-23T01:29:29.494Z,100765.76
2022-09-23T01:32:22.463Z,100765.05
2022-09-23T01:35:18.029Z,100767.05
2022-09-23T01:38:02.438Z,100771.64
2022-09-23T01:40:49.319Z,100770.86
2022-09-23T01:43:27.174Z,100768.55
2022-09-23T01:45:59.492Z,100765.36
2022-09-23T01:48:38.574Z,100771.12
2022-09-23T01:51:08.293Z,100766.45
2022-09-23T01:53:41.386Z,100764.98
2022-09-23T01:56:31.970Z,100765.64
2022-09-23T01:59:26.173Z,100764.84
2022-09-23T02:02:18.847Z,100769.70
2022-09-23T02:05:07.536Z,100767.48
2022-09-23T02:07:45.587Z,100762.99
2022-09-23T02:10:24.738Z,100761.83
2022-09-23T02:12:58.055Z,100760.28
2022-09-23T02:15:30.342Z,100759.88
2022-09-23T02:18:13.201Z,100764.29
2022-09-23T02:20:40.571Z,100760.10
2022-09-23T02:23:12.769Z,100764.65
2022-09-23T02:26:04.591Z,100765.88
2022-09-23T02:28:42.827Z,100766.55
2022-09-23T02:31:28.472Z,100768.96
2022-09-23T02:34:02.150Z,100764.26
2022-09-23T02:36:44.504Z,100764.38
2022-09-23T02:39:14.686Z,100768.70
2022-09-23T02:41:41.691Z,100763.75
2022-09-23T02:44:12.562Z,100764.42
2022-09-23T02:46:42.828Z,100767.05
2022-09-23T02:49:23.418Z,100763.66
2022-09-23T02:51:52.848Z,100762.45
2022-09-23T02:54:25.658Z,100763.86
2022-09-23T02:56:53.359Z,100765.56
2022-09-23T02:59:22.893Z,100770.95
2022-09-23T03:02:21.303Z,100772.30
2022-09-23T03:05:06.387Z,100776.08
2022-09-23T03:08:25.351Z,100766.80
2022-09-23T03:11:05.360Z,100772.10
2022-09-23T03:13:46.413Z,100771.45
2022-09-23T03:16:37.172Z,100776.20
2022-09-23T03:19:22.842Z,100769.85
2022-09-23T03:21:52.580Z,100767.63
2022-09-23T03:24:21.819Z,100763.03
2022-09-23T03:26:49.907Z,100763.84
2022-09-23T03:29:20.232Z,100761.23
2022-09-23T03:31:47.498Z,100762.27
2022-09-23T03:34:20.046Z,100766.75
2022-09-23T03:37:02.498Z,100759.72
2022-09-23T03:39:47.658Z,100761.04
2022-09-23T03:42:22.010Z,100759.90
2022-09-23T03:44:56.024Z,100758.05
2022-09-23T03:47:26.217Z,100758.94
2022-09-23T03:49:53.983Z,100753.23
2022-09-23T03:52:23.409Z,100754.19
2022-09-23T03:54:51.647Z,100755.75
2022-09-23T03:57:21.619Z,100751.96
2022-09-23T03:59:50.090Z,100751.24
2022-09-23T04:02:18.531Z,100752.58
2022-09-23T04:04:45.660Z,100753.25
2022-09-23T04:07:13.628Z,100755.47
2022-09-23T04:09:41.505Z,100756.66
2022-09-23T04:12:12.971Z,100757.73
2022-09-23T04:14:40.228Z,100753.27
2022-09-23T04:17:07.856Z,100753.11
2022-09-23T04:19:35.054Z,100754.88
2022-09-23T04:22:02.002Z,100750.81
2022-09-23T04:24:29.280Z,100755.33
2022-09-23T04:26:56.920Z,100761.30
2022-09-23T04:29:25.224Z,100762.21
2022-09-23T04:31:52.835Z,100763.52
2022-09-23T04:34:20.427Z,100763.71
2022-09-23T04:36:48.640Z,100768.14
2022-09-23T04:39:16.633Z,100767.79
2022-09-23T04:41:44.699Z,100766.20
2022-09-23T04:44:13.873Z,100767.15
2022-09-23T04:46:42.177Z,100770.37
2022-09-23T04:49:09.383Z,100770.71
2022-09-23T04:51:36.486Z,100769.42
2022-09-23T04:54:03.554Z,100769.80
2022-09-23T04:56:32.265Z,100770.60
2022-09-23T04:59:01.295Z,100763.98
2022-09-23T05:01:33.934Z,100764.44
2022-09-23T05:04:05.882Z,100762.02
2022-09-23T05:06:34.569Z,100763.95
2022-09-23T05:09:03.714Z,100761.19
2022-09-23T05:11:31.617Z,100762.87
2022-09-23T05:13:58.900Z,100763.11
2022-09-23T05:16:27.991Z,100766.75
2022-09-23T05:18:55.089Z,100764.67
2022-09-23T05:21:24.073Z,100764.98
2022-09-23T05:23:56.388Z,100763.61
2022-09-23T05:26:27.914Z,100764.23
2022-09-23T05:28:59.895Z,100766.27
2022-09-23T05:31:30.147Z,100760.93
2022-09-23T05:34:02.666Z,100763.62
2022-09-23T05:36:37.863Z,100765.56
2022-09-23T05:39:08.642Z,100769.64
2022-09-23T05:41:37.262Z,100772.29
2022-09-23T05:44:05.565Z,100776.81
2022-09-23T05:46:33.412Z,100771.58
2022-09-23T05:49:04.590Z,100776.48
2022-09-23T05:51:35.528Z,100779.23
2022-09-23T05:54:05.299Z,100777.47
2022-09-23T05:56:38.783Z,100779.48
2022-09-23T05:59:06.716Z,100782.80
2022-09-23T06:01:37.937Z,100782.48
2022-09-23T06:04:07.801Z,100786.52
2022-09-23T06:06:41.695Z,100779.41
2022-09-23T06:09:15.625Z,100778.30
2022-09-23T06:11:43.051Z,100780.80
2022-09-23T06:14:14.349Z,100780.74
2022-09-23T06:16:43.678Z,100776.14
2022-09-23T06:19:11.823Z,100775.64
2022-09-23T06:21:44.492Z,100775.58
2022-09-23T06:24:18.732Z,100773.59
2022-09-23T06:26:52.934Z,100775.67
2022-09-23T06:29:34.574Z,100778.86
2022-09-23T06:32:06.272Z,100775.33
2022-09-23T06:34:45.074Z,100776.83
2022-09-23T06:37:27.099Z,100774.81
2022-09-23T06:39:57.355Z,100776.77
2022-09-23T06:42:25.714Z,100778.81
2022-09-23T06:44:56.900Z,100781.25
2022-09-23T06:47:25.653Z,100781.84
2022-09-23T06:49:53.915Z,100775.80
2022-09-23T06:52:27.264Z,100773.11
2022-09-23T06:55:02.987Z,100772.31
2022-09-23T06:57:35.874Z,100773.45
2022-09-23T07:00:04.521Z,100779.20
2022-09-23T07:02:32.650Z,100778.23
2022-09-23T07:05:03.455Z,100779.52
2022-09-23T07:07:32.735Z,100782.17
2022-09-23T07:10:00.644Z,100785.55
2022-09-23T07:12:27.891Z,100787.05
2022-09-23T07:14:55.030Z,100785.79
2022-09-23T07:17:24.179Z,100788.38
2022-09-23T07:19:52.348Z,100789.06
2022-09-23T07:22:21.525Z,100786.64
2022-09-23T07:24:53.069Z,100787.02
2022-09-23T07:27:26.905Z,100784.95
2022-09-23T07:29:58.934Z,100782.55
2022-09-23T07:32:26.057Z,100778.62
2022-09-23T07:34:53.625Z,100775.88
2022-09-23T07:37:21.966Z,100775.76
2022-09-23T07:39:49.872Z,100770.65
2022-09-23T07:42:17.725Z,100772.66
2022-09-23T07:44:45.726Z,100771.27
2022-09-23T07:47:17.461Z,100770.16
2022-09-23T07:49:46.977Z,100765.61
2022-09-23T07:52:14.318Z,100767.95
2022-09-23T07:54:41.901Z,100765.48
2022-09-23T07:57:09.489Z,100763.13
2022-09-23T07:59:40.660Z,100764.81
2022-09-23T08:02:09.625Z,100763.48
2022-09-23T08:04:38.630Z,100756.56
2022-09-23T08:07:06.255Z,100762.35
2022-09-23T08:09:44.315Z,100758.40
2022-09-23T08:12:16.267Z,100757.77
2022-09-23T08:14:45.176Z,100759.41
2022-09-23T08:17:14.041Z,100759.92
2022-09-23T08:19:42.046Z,100762.52
2022-09-23T08:22:11.840Z,100753.20
2022-09-23T08:24:38.928Z,100746.88
2022-09-23T08:27:10.348Z,100747.38
2022-09-23T08:29:37.840Z,100743.02
2022-09-23T08:32:06.080Z,100744.56
2022-09-23T08:34:36.143Z,100742.30
2022-09-23T08:37:04.822Z,100743.39
2022-09-23T08:39:33.282Z,100743.44
2022-09-23T08:42:27.475Z,100748.37
2022-09-23T08:45:02.226Z,100743.35
2022-09-23T08:47:45.042Z,100742.36
2022-09-23T08:50:18.342Z,100744.21
2022-09-23T08:52:54.867Z,100746.14
2022-09-23T08:55:42.336Z,100745.31
2022-09-23T08:58:27.699Z,100745.54
2022-09-23T09:01:31.757Z,100739.10
2022-09-23T09:04:12.713Z,100739.73
2022-09-23T09:06:54.225Z,100737.11
2022-09-23T09:09:30.069Z,100734.42
2022-09-23T09:12:08.780Z,100731.49
2022-09-23T09:15:09.117Z,100735.17
2022-09-23T09:17:39.489Z,100725.00
2022-09-23T09:20:40.780Z,100728.99
2022-09-23T09:23:21.165Z,100727.84
2022-09-23T09:25:54.429Z,100719.84
2022-09-23T09:28:34.592Z,100727.62
2022-09-23T09:31:22.120Z,100727.38
2022-09-23T09:34:16.876Z,100718.70
2022-09-23T09:37:07.476Z,100718.52
2022-09-23T09:39:36.696Z,100710.08
2022-09-23T09:42:06.093Z,100705.00
2022-09-23T09:44:49.485Z,100707.07
2022-09-23T09:47:35.434Z,100705.70
2022-09-23T09:50:21.764Z,100704.30
2022-09-23T09:52:49.082Z,100705.12
2022-09-23T09:55:29.496Z,100701.90
2022-09-23T09:58:03.980Z,100695.18
2022-09-23T10:00:42.712Z,100694.20
2022-09-23T10:03:17.096Z,100688.21
2022-09-23T10:05:47.590Z,100680.52
2022-09-23T10:08:34.927Z,100673.95
2022-09-23T10:11:04.957Z,100677.38
2022-09-23T10:13:32.394Z,100675.51
2022-09-23T10:16:04.549Z,100674.41
2022-09-23T10:18:38.574Z,100671.18
2022-09-23T10:21:13.961Z,100665.70
2022-09-23T10:23:45.284Z,100665.16
2022-09-23T10:26:18.382Z,100664.06
2022-09-23T10:29:02.157Z,100662.42
2022-09-23T10:31:35.158Z,100658.37
2022-09-23T10:34:26.827Z,100660.98
2022-09-23T10:37:24.117Z,100652.69
2022-09-23T10:40:10.290Z,100648.41
2022-09-23T10:42:55.865Z,100651.96
2022-09-23T10:45:50.975Z,100652.58
2022-09-23T10:48:28.021Z,100646.26
2022-09-23T10:50:59.492Z,100651.02
2022-09-23T10:53:55.050Z,100649.67
2022-09-23T10:56:42.445Z,100645.98
2022-09-23T10:59:29.867Z,100648.50
2022-09-23T11:02:15.113Z,100645.56
2022-09-23T11:05:15.536Z,100640.41
2022-09-23T11:07:52.096Z,100637.61
2022-09-23T11:10:49.425Z,100634.14
2022-09-23T11:13:24.255Z,100631.70
2022-09-23T11:16:19.570Z,100631.23
2022-09-23T11:19:11.128Z,100627.53
2022-09-23T11:22:08.413Z,100627.78
2022-09-23T11:25:13.727Z,100627.02
2022-09-23T11:28:03.296Z,100622.47
2022-09-23T11:30:53.341Z,100624.27
2022-09-23T11:33:32.745Z,100620.41
2022-09-23T11:36:07.013Z,100617.44
2022-09-23T11:38:45.923Z,100623.36
2022-09-23T11:41:23.058Z,100611.28
2022-09-23T11:43:55.010Z,100615.96
2022-09-23T11:46:38.429Z,100613.08
2022-09-23T11:49:15.231Z,100614.72
2022-09-23T11:52:13.415Z,100606.80
2022-09-23T11:54:54.002Z,100600.84
2022-09-23T11:57:43.144Z,100599.86
2022-09-23T12:00:27.979Z,100597.01
2022-09-23T12:03:06.491Z,100598.63
2022-09-23T12:05:47.002Z,100595.84
2022-09-23T12:08:30.399Z,100596.31
2022-09-23T12:11:26.756Z,100594.96
2022-09-23T12:14:18.414Z,100580.42
2022-09-23T12:17:14.451Z,100578.59
2022-09-23T12:20:04.767Z,100579.38
2022-09-23T12:22:38.796Z,100579.00
2022-09-23T12:25:05.835Z,100570.73
2022-09-23T12:27:44.398Z,100566.38
2022-09-23T12:30:14.096Z,100573.92
2022-09-23T12:32:42.932Z,100568.77
2022-09-23T12:35:32.128Z,100569.16
2022-09-23T12:38:01.032Z,100571.40
2022-09-23T12:40:43.146Z,100569.53
2022-09-23T12:43:50.536Z,100567.83
2022-09-23T12:46:26.863Z,100569.73
2022-09-23T12:49:24.553Z,100572.41
2022-09-23T12:52:10.869Z,100567.17
2022-09-23T12:54:43.672Z,100563.28
2022-09-23T12:57:21.197Z,100562.20
2022-09-23T13:04:14.918Z,100557.54
2022-09-23T13:21:18.895Z,100548.73
2022-09-23T13:24:38.707Z,100545.55
2022-09-23T13:28:17.917Z,100539.91
2022-09-23T13:31:42.999Z,100539.85
2022-09-23T13:41:02.437Z,100533.37
2022-09-23T13:43:42.317Z,100533.05
2022-09-23T13:46:15.787Z,100534.27
2022-09-23T13:48:46.034Z,100532.39
2022-09-23T13:51:27.083Z,100530.35
2022-09-23T13:53:55.198Z,100529.02
2022-09-23T13:56:25.608Z,100525.89
2022-09-23T13:58:56.912Z,100523.79
2022-09-23T14:01:34.867Z,100525.38
2022-09-23T14:04:03.534Z,100522.88
2022-09-23T14:06:31.510Z,100522.40
2022-09-23T14:09:03.638Z,100519.61
2022-09-23T14:11:34.989Z,100520.32
2022-09-23T14:14:07.291Z,100520.39
2022-09-23T14:16:43.202Z,100516.29
2022-09-23T14:19:23.996Z,100517.66
2022-09-23T14:21:53.971Z,100513.89
2022-09-23T14:24:33.889Z,100517.48
2022-09-23T14:27:13.228Z,100516.45
2022-09-23T14:29:47.074Z,100518.02
2022-09-23T14:32:20.564Z,100512.89
2022-09-23T14:35:00.479Z,100512.86
2022-09-23T14:37:58.484Z,100514.52
2022-09-23T14:40:50.538Z,100510.90
2022-09-23T14:43:27.839Z,100508.89
2022-09-23T14:45:57.317Z,100508.08
2022-09-23T14:48:33.548Z,100509.34
2022-09-23T14:51:06.140Z,100503.83
2022-09-23T14:53:45.239Z,100503.23
2022-09-23T14:56:21.240Z,100499.73
2022-09-23T14:58:58.411Z,100500.59
2022-09-23T15:01:32.471Z,100500.24
2022-09-23T15:04:13.494Z,100499.81
2022-09-23T15:06:46.477Z,100500.48
2022-09-23T15:09:23.103Z,100499.83
2022-09-23T15:11:57.624Z,100492.94
2022-09-23T15:14:37.705Z,100491.30
2022-09-23T15:17:29.841Z,100487.62
2022-09-23T15:20:05.122Z,100488.52
2022-09-23T15:22:42.077Z,100488.83
2022-09-23T15:25:40.315Z,100482.50
2022-09-23T15:28:10.541Z,100483.23
2022-09-23T15:30:38.875Z,100482.78
2022-09-23T15:33:13.543Z,100479.09
2022-09-23T15:35:48.012Z,100480.55
2022-09-23T15:38:17.116Z,100476.14
2022-09-23T15:40:44.616Z,100476.00
2022-09-23T15:43:21.965Z,100476.77
2022-09-23T15:45:51.496Z,100481.05
2022-09-23T15:48:22.742Z,100481.05
2022-09-23T15:50:51.904Z,100480.98
2022-09-23T15:53:23.507Z,100482.33
2022-09-23T15:55:51.174Z,100479.64
2022-09-23T15:58:20.207Z,100483.23
2022-09-23T16:00:56.065Z,100487.88
2022-09-23T16:03:27.877Z,100487.14
2022-09-23T16:05:59.565Z,100486.27
2022-09-23T16:08:27.858Z,100483.45
2022-09-23T16:10:56.213Z,100488.80
2022-09-23T16:13:23.858Z,100489.17
2022-09-23T16:15:50.811Z,100487.92
2022-09-23T16:18:17.845Z,100487.77
2022-09-23T16:20:46.978Z,100488.00
2022-09-23T16:23:35.462Z,100492.41
2022-09-23T16:26:10.799Z,100493.63
2022-09-23T16:28:37.952Z,100496.48
2022-09-23T16:31:05.304Z,100493.73
2022-09-23T16:33:32.717Z,100493.61
2022-09-23T16:36:03.138Z,100491.42
2022-09-23T16:38:32.136Z,100491.01
2022-09-23T16:41:00.013Z,100492.65
2022-09-23T16:43:31.328Z,100491.79
2022-09-23T16:45:58.794Z,100494.15
2022-09-23T16:48:26.057Z,100495.90
2022-09-23T16:50:55.758Z,100491.58
2022-09-23T16:53:23.299Z,100495.61
2022-09-23T16:55:53.270Z,100494.87
2022-09-23T16:58:20.755Z,100492.02
2022-09-23T17:01:06.645Z,100492.02
2022-09-23T17:03:40.755Z,100490.17
2022-09-23T17:06:15.800Z,100490.69
2022-09-23T17:08:47.781Z,100488.77
2022-09-23T17:11:16.371Z,100490.37
2022-09-23T17:13:44.463Z,100487.16
2022-09-23T17:16:22.580Z,100487.17
2022-09-23T17:18:49.622Z,100484.09
2022-09-23T17:21:16.914Z,100482.84
2022-09-23T17:23:46.483Z,100479.77
2022-09-23T17:26:15.341Z,100486.23
2022-09-23T17:28:42.913Z,100489.98
2022-09-23T17:31:09.994Z,100486.42
2022-09-23T17:33:37.381Z,100488.77
2022-09-23T17:36:09.947Z,100488.65
2022-09-23T17:38:38.948Z,100491.06
2022-09-23T17:41:07.703Z,100490.14
2022-09-23T17:43:35.668Z,100498.46
2022-09-23T17:46:06.177Z,100496.72
2022-09-23T17:48:34.387Z,100501.21
2022-09-23T17:51:04.482Z,100499.38
2022-09-23T17:53:36.855Z,100497.57
2022-09-23T17:56:07.216Z,100497.83
2022-09-23T17:58:36.766Z,100497.25
2022-09-23T18:01:08.268Z,100493.69
2022-09-23T18:03:35.969Z,100490.08
2022-09-23T18:06:07.376Z,100492.50
2022-09-23T18:08:34.625Z,100490.66
2022-09-23T18:11:13.025Z,100494.34
2022-09-23T18:13:41.896Z,100496.99
2022-09-23T18:16:09.828Z,100497.98
2022-09-23T18:18:58.768Z,100494.72
2022-09-23T18:21:42.899Z,100496.98
2022-09-23T18:24:31.176Z,100497.05
2022-09-23T18:26:59.619Z,100496.52
2022-09-23T18:29:27.238Z,100499.87
2022-09-23T18:31:56.178Z,100501.09
2022-09-23T18:34:25.238Z,100493.50
2022-09-23T18:36:57.679Z,100497.12
2022-09-23T18:39:26.273Z,100491.52
2022-09-23T18:41:54.795Z,100497.23
2022-09-23T18:44:23.446Z,100506.27
2022-09-23T18:46:51.736Z,100509.95
2022-09-23T18:49:38.221Z,100506.89
2022-09-23T18:52:05.376Z,100510.57
2022-09-23T18:54:32.956Z,100509.42
2022-09-23T18:57:00.193Z,100508.84
2022-09-23T18:59:29.307Z,100509.16
2022-09-23T19:01:58.571Z,100508.83
2022-09-23T19:04:27.010Z,100508.73
2022-09-23T19:06:57.394Z,100507.96
2022-09-23T19:09:24.950Z,100504.48
2022-09-23T19:11:53.725Z,100505.54
2022-09-23T19:14:21.052Z,100501.42
2022-09-23T19:16:49.186Z,100504.27
2022-09-23T19:19:19.588Z,100502.53
2022-09-23T19:21:46.968Z,100506.89
2022-09-23T19:24:20.371Z,100508.06
2022-09-23T19:26:48.392Z,100506.94
2022-09-23T19:29:19.771Z,100511.89
2022-09-23T19:31:48.904Z,100507.73
2022-09-23T19:34:23.378Z,100512.95
2022-09-23T19:36:50.860Z,100511.92
2022-09-23T19:39:23.537Z,100514.55
2022-09-23T19:41:52.217Z,100515.32
2022-09-23T19:44:19.680Z,100515.78
2022-09-23T19:46:53.375Z,100516.41
2022-09-23T19:49:24.298Z,100516.14
2022-09-23T19:51:54.730Z,100515.14
2022-09-23T19:54:21.828Z,100516.65
2022-09-23T19:56:49.573Z,100513.77
2022-09-23T19:59:19.007Z,100512.13
2022-09-23T20:01:47.670Z,100511.91
2022-09-23T20:04:16.335Z,100512.91
2022-09-23T20:06:43.685Z,100513.34
2022-09-23T20:09:11.316Z,100517.30
2022-09-23T20:11:43.130Z,100513.08
2022-09-23T20:14:11.552Z,100512.29
2022-09-23T20:16:40.086Z,100509.32
2022-09-23T20:19:07.621Z,100508.85
2022-09-23T20:21:35.203Z,100507.45
2022-09-23T20:24:07.735Z,100504.84
2022-09-23T20:26:53.866Z,100504.91
2022-09-23T20:29:21.907Z,100499.73
2022-09-23T20:31:49.020Z,100495.42
2022-09-23T20:34:16.167Z,100496.45
2022-09-23T20:36:44.622Z,100496.76
2022-09-23T20:39:13.070Z,100493.30
2022-09-23T20:41:40.647Z,100488.77
2022-09-23T20:44:14.008Z,100487.08
2022-09-23T20:46:48.553Z,100487.95
2022-09-23T20:49:17.438Z,100488.02
2022-09-23T20:51:47.415Z,100490.52
2022-09-23T20:54:16.429Z,100493.10
2022-09-23T20:56:43.549Z,100490.92
2022-09-23T20:59:14.728Z,100490.79
2022-09-23T21:01:46.262Z,100493.23
2022-09-23T21:04:13.999Z,100491.34
2022-09-23T21:06:41.174Z,100490.75
2022-09-23T21:09:08.322Z,100487.87
2022-09-23T21:11:35.364Z,100490.84
2022-09-23T21:14:03.135Z,100490.29
2022-09-23T21:16:31.812Z,100488.71
2022-09-23T21:19:00.009Z,100489.54
2022-09-23T21:21:27.692Z,100491.04
2022-09-23T21:24:11.727Z,100492.73
2022-09-23T21:26:47.566Z,100488.84
2022-09-23T21:29:15.845Z,100487.88
2022-09-23T21:31:42.860Z,100489.02
2022-09-23T21:34:14.314Z,100494.98
2022-09-23T21:36:43.604Z,100495.67
2022-09-23T21:39:11.637Z,100498.38
2022-09-23T21:41:39.709Z,100499.97
2022-09-23T21:44:07.475Z,100498.98
2022-09-23T21:46:35.380Z,100497.51
2022-09-23T21:49:04.049Z,100496.77
2022-09-23T21:51:36.418Z,100494.64
2022-09-23T21:54:05.193Z,100501.41
2022-09-23T21:56:34.936Z,100498.62
2022-09-23T21:59:02.971Z,100500.85
2022-09-23T22:01:34.278Z,100505.58
2022-09-23T22:04:05.047Z,100511.56
2022-09-23T22:06:32.284Z,100507.52
2022-09-23T22:09:02.207Z,100508.42
2022-09-23T22:11:49.991Z,100506.38
2022-09-23T22:14:19.208Z,100507.55
2022-09-23T22:16:46.485Z,100504.28
2022-09-23T22:19:14.651Z,100502.30
2022-09-23T22:21:44.653Z,100502.21
2022-09-23T22:24:12.737Z,100502.14
2022-09-23T22:26:42.817Z,100504.39
2022-09-23T22:29:34.162Z,100506.86
2022-09-23T22:32:21.742Z,100503.88
2022-09-23T22:34:51.091Z,100499.69
2022-09-23T22:37:25.058Z,100498.30
2022-09-23T22:39:52.486Z,100495.44
2022-09-23T22:42:23.444Z,100497.54
2022-09-23T22:44:51.110Z,100498.89
2022-09-23T22:47:19.575Z,100501.43
2022-09-23T22:49:47.336Z,100495.63
2022-09-23T22:52:20.553Z,100492.98
2022-09-23T22:54:47.611Z,100491.10
2022-09-23T22:57:15.446Z,100486.23
2022-09-23T22:59:47.482Z,100484.31
2022-09-23T23:02:16.041Z,100481.42
2022-09-23T23:04:46.772Z,100482.64
2022-09-23T23:07:14.796Z,100482.06
2022-09-23T23:09:41.744Z,100480.98
2022-09-23T23:12:08.738Z,100478.88
2022-09-23T23:14:35.990Z,100477.92
2022-09-23T23:17:06.803Z,100475.99
2022-09-23T23:19:35.953Z,100474.03
2022-09-23T23:22:04.351Z,100473.36
2022-09-23T23:24:31.968Z,100469.91
2022-09-23T23:26:59.014Z,100472.25
2022-09-23T23:29:27.319Z,100470.89
2022-09-23T23:31:54.730Z,100464.68
2022-09-23T23:34:21.723Z,100465.27
2022-09-23T23:36:56.101Z,100460.75
2022-09-23T23:39:24.738Z,100456.02
2022-09-23T23:41:54.458Z,100455.89
2022-09-23T23:44:23.316Z,100458.52
2022-09-23T23:46:51.152Z,100455.92
2022-09-23T23:49:18.202Z,100459.45
2022-09-23T23:51:45.210Z,100456.32
2022-09-23T23:54:12.339Z,100460.95
2022-09-23T23:56:39.413Z,100459.74
2022-09-23T23:59:06.370Z,100463.36
